Time;durP1;ratioP1;P1;durP2;ratioP2;P2;SDS_P1;SDS_P2;PMS_P1;PMS_P2;Temp;Humidity;BMP_temperature;BMP_pressure;BME280_temperature;BME280_humidity;BME280_pressure;Samples;Min_cycle;Max_cycle;Signal;HPM_P1;HPM_P2
2022/07/01 00:01:28;;;;;;;12.45;6.45;;;;;;;14.43;100.00;98720.47;4889568;29;20392;-86
2022/07/01 00:03:54;;;;;;;10.25;7.35;;;;;;;14.66;100.00;98713.59;4890927;29;20120;-87
2022/07/01 00:06:20;;;;;;;10.75;6.78;;;;;;;14.79;100.00;98717.88;4909019;29;20032;-89
2022/07/01 00:08:47;;;;;;;11.18;7.68;;;;;;;14.66;100.00;98718.88;4903767;29;20411;-85
2022/07/01 00:11:13;;;;;;;10.45;7.68;;;;;;;14.71;100.00;98712.94;4903852;29;20062;-87
2022/07/01 00:13:39;;;;;;;11.77;7.47;;;;;;;14.92;100.00;98716.81;4905530;29;20055;-86
2022/07/01 00:16:05;;;;;;;10.38;6.35;;;;;;;14.77;100.00;98716.50;4909182;29;20052;-85
2022/07/01 00:18:31;;;;;;;10.13;6.22;;;;;;;14.97;100.00;98713.50;4890660;29;20059;-86
2022/07/01 00:20:56;;;;;;;10.35;7.07;;;;;;;15.05;100.00;98715.81;4910244;29;20083;-88
2022/07/01 00:23:22;;;;;;;10.75;8.15;;;;;;;15.02;100.00;98715.44;4908556;29;20398;-87
2022/07/01 00:25:48;;;;;;;11.18;7.72;;;;;;;14.92;100.00;98716.81;4885953;29;20160;-85
2022/07/01 00:28:14;;;;;;;11.75;7.43;;;;;;;14.97;100.00;98709.03;4891623;29;20032;-86
2022/07/01 00:30:40;;;;;;;13.30;8.05;;;;;;;14.99;100.00;98712.25;4911157;29;20086;-87
2022/07/01 00:33:06;;;;;;;13.15;8.63;;;;;;;14.88;100.00;98728.91;4894600;29;20060;-85
2022/07/01 00:35:31;;;;;;;12.35;8.50;;;;;;;14.91;100.00;98725.78;4909028;29;20123;-85
2022/07/01 00:37:57;;;;;;;13.90;8.52;;;;;;;14.98;100.00;98715.09;4910739;29;20088;-87
2022/07/01 00:40:24;;;;;;;16.00;9.88;;;;;;;15.05;100.00;98722.91;4910171;29;20494;-87
2022/07/01 00:42:50;;;;;;;15.68;10.32;;;;;;;14.99;100.00;98712.25;4893552;29;20064;-87
2022/07/01 00:45:16;;;;;;;17.83;11.32;;;;;;;15.02;100.00;98713.59;4895618;29;20521;-86
2022/07/01 00:47:43;;;;;;;17.92;11.30;;;;;;;14.61;100.00;98705.56;4891808;29;20033;-86
2022/07/01 00:50:14;;;;;;;16.13;10.27;;;;;;;14.34;100.00;98710.47;4895883;29;20636;-88
2022/07/01 00:52:41;;;;;;;13.70;9.48;;;;;;;14.54;100.00;98699.56;4909691;29;20390;-87
2022/07/01 00:55:10;;;;;;;12.27;8.45;;;;;;;14.61;100.00;98699.44;4909429;29;20501;-87
2022/07/01 00:57:37;;;;;;;12.70;7.57;;;;;;;14.68;100.00;98706.22;4907303;29;20043;-86
2022/07/01 01:00:26;;;;;;;9.07;7.00;;;;;;;14.46;100.00;98705.19;4910847;29;21740;-87
2022/07/01 01:02:53;;;;;;;8.63;5.63;;;;;;;14.53;100.00;98700.59;4907494;29;20036;-87
2022/07/01 01:05:20;;;;;;;6.10;4.85;;;;;;;14.23;100.00;98693.56;4908596;29;20044;-87
2022/07/01 01:07:47;;;;;;;5.75;4.88;;;;;;;14.46;100.00;98702.56;4895968;29;20039;-86
2022/07/01 01:10:14;;;;;;;6.72;5.05;;;;;;;14.69;100.00;98699.13;4912383;29;20111;-89
2022/07/01 01:12:40;;;;;;;7.25;4.90;;;;;;;14.61;100.00;98695.00;4911575;29;20048;-87
2022/07/01 01:15:06;;;;;;;7.70;5.32;;;;;;;14.67;100.00;98698.56;4907606;29;20024;-88
2022/07/01 01:17:31;;;;;;;6.03;4.82;;;;;;;14.62;100.00;98693.94;4909853;29;20033;-87
2022/07/01 01:19:57;;;;;;;7.95;4.75;;;;;;;14.30;100.00;98702.19;4913646;29;20042;-87
2022/07/01 01:22:22;;;;;;;5.60;4.60;;;;;;;14.53;100.00;98697.94;4911670;29;20369;-88
2022/07/01 01:24:48;;;;;;;5.18;4.32;;;;;;;14.25;100.00;98688.88;4891884;29;20032;-87
2022/07/01 01:27:16;;;;;;;5.78;5.18;;;;;;;14.06;100.00;98693.44;4889409;29;20087;-87
2022/07/01 01:29:42;;;;;;;7.05;4.55;;;;;;;14.33;100.00;98680.59;4908276;29;20119;-88
2022/07/01 01:32:08;;;;;;;7.35;4.75;;;;;;;14.18;100.00;98686.31;4909470;29;20083;-89
2022/07/01 01:34:38;;;;;;;5.57;4.72;;;;;;;13.97;100.00;98688.47;4887943;29;20025;-87
2022/07/01 01:37:05;;;;;;;5.97;4.65;;;;;;;14.19;100.00;98689.78;4904784;29;20088;-88
2022/07/01 01:39:31;;;;;;;7.20;5.78;;;;;;;14.12;100.00;98690.66;4877827;29;20046;-88
2022/07/01 01:41:57;;;;;;;7.57;6.35;;;;;;;14.17;100.00;98684.72;4907134;29;20024;-88
2022/07/01 01:44:22;;;;;;;11.65;7.78;;;;;;;13.74;100.00;98685.75;4892769;29;20032;-87
2022/07/01 01:46:48;;;;;;;15.25;8.05;;;;;;;13.97;100.00;98687.66;4905689;29;20078;-87
2022/07/01 01:49:14;;;;;;;13.57;8.90;;;;;;;13.88;100.00;98686.38;4912252;29;20084;-86
2022/07/01 01:51:40;;;;;;;13.15;10.20;;;;;;;13.81;100.00;98676.72;4908334;29;20391;-86
2022/07/01 01:54:06;;;;;;;15.00;11.05;;;;;;;13.97;100.00;98679.75;4886302;29;20025;-88
2022/07/01 01:56:32;;;;;;;15.57;11.48;;;;;;;14.02;100.00;98686.97;4911156;29;20029;-88
2022/07/01 01:58:58;;;;;;;18.75;12.98;;;;;;;14.11;100.00;98691.69;4908210;29;20059;-87
2022/07/01 02:01:25;;;;;;;21.17;14.07;;;;;;;13.90;100.00;98685.13;4909215;29;20458;-87
2022/07/01 02:03:52;;;;;;;25.42;15.57;;;;;;;13.76;100.00;98689.78;4909655;29;20118;-87
2022/07/01 02:06:19;;;;;;;24.58;15.18;;;;;;;13.88;100.00;98686.38;4907302;29;20036;-88
2022/07/01 02:08:45;;;;;;;22.73;14.75;;;;;;;13.99;100.00;98689.03;4909504;29;20032;-88
2022/07/01 02:11:11;;;;;;;24.17;15.82;;;;;;;13.52;100.00;98689.66;4903396;29;20399;-87
2022/07/01 02:13:37;;;;;;;25.00;16.77;;;;;;;13.46;100.00;98690.56;4909215;29;20048;-87
2022/07/01 02:16:03;;;;;;;27.83;16.75;;;;;;;13.70;100.00;98680.09;4891007;29;20103;-88
2022/07/01 02:18:30;;;;;;;23.92;16.17;;;;;;;13.82;100.00;98685.41;4893226;29;20391;-88
2022/07/01 02:20:56;;;;;;;26.27;17.88;;;;;;;13.29;100.00;98683.22;4890843;29;20376;-87
2022/07/01 02:23:22;;;;;;;27.30;17.80;;;;;;;13.51;100.00;98682.78;4904490;29;20039;-88
2022/07/01 02:25:48;;;;;;;30.20;17.70;;;;;;;13.60;100.00;98680.63;4907987;29;20032;-87
2022/07/01 02:28:14;;;;;;;33.90;18.27;;;;;;;13.41;100.00;98690.41;4891042;29;20048;-87
2022/07/01 02:30:41;;;;;;;23.67;17.48;;;;;;;13.44;100.00;98687.34;4894613;29;20024;-87
2022/07/01 02:33:08;;;;;;;27.75;17.55;;;;;;;13.36;100.00;98684.97;4902273;29;20032;-81
2022/07/01 02:35:36;;;;;;;28.88;19.42;;;;;;;13.11;100.00;98685.84;4889957;29;20040;-83
2022/07/01 02:38:03;;;;;;;34.25;19.90;;;;;;;13.28;100.00;98688.72;4903771;29;20387;-82
2022/07/01 02:40:29;;;;;;;35.60;21.55;;;;;;;13.17;100.00;98689.44;4904776;29;20035;-81
2022/07/01 02:42:55;;;;;;;32.35;21.13;;;;;;;13.16;100.00;98690.47;4906471;29;20032;-81
2022/07/01 02:45:21;;;;;;;33.17;20.23;;;;;;;13.13;100.00;98691.72;4888429;29;20032;-82
2022/07/01 02:47:47;;;;;;;36.40;20.67;;;;;;;13.27;100.00;98687.91;4903735;29;20041;-82
2022/07/01 02:50:13;;;;;;;35.47;20.60;;;;;;;13.18;100.00;98689.25;4902984;29;20033;-81
2022/07/01 02:52:41;;;;;;;33.85;21.65;;;;;;;13.17;100.00;98698.19;4909146;29;20482;-81
2022/07/01 02:55:09;;;;;;;42.33;21.83;;;;;;;13.02;100.00;98703.00;4904942;29;20128;-80
2022/07/01 02:57:35;;;;;;;32.53;20.52;;;;;;;13.46;100.00;98700.28;4908977;29;20052;-81
2022/07/01 03:00:04;;;;;;;34.55;20.63;;;;;;;13.20;100.00;98703.00;4885724;29;20039;-81
2022/07/01 03:02:31;;;;;;;34.13;20.30;;;;;;;12.97;100.00;98712.38;4888098;29;20029;-81
2022/07/01 03:04:57;;;;;;;32.60;20.48;;;;;;;13.13;100.00;98712.78;4905872;29;20051;-82
2022/07/01 03:07:22;;;;;;;35.47;19.67;;;;;;;13.09;100.00;98711.63;4891630;29;20041;-82
2022/07/01 03:09:51;;;;;;;34.67;20.50;;;;;;;13.20;100.00;98710.91;4881269;29;20033;-82
2022/07/01 03:12:30;;;;;;;31.02;20.42;;;;;;;13.14;100.00;98714.41;4906396;29;20028;-82
2022/07/01 03:15:00;;;;;;;28.40;18.73;;;;;;;13.24;100.00;98717.34;4880595;29;20064;-82
2022/07/01 03:17:27;;;;;;;29.58;17.95;;;;;;;13.56;100.00;98717.22;4907307;29;20111;-82
2022/07/01 03:19:53;;;;;;;29.92;18.10;;;;;;;13.43;100.00;98712.09;4903829;29;20033;-82
2022/07/01 03:22:27;;;;;;;27.90;17.45;;;;;;;13.11;100.00;98728.84;4890848;29;20067;-83
2022/07/01 03:24:54;;;;;;;26.45;17.67;;;;;;;13.16;100.00;98714.97;4902208;29;20031;-82
2022/07/01 03:27:21;;;;;;;29.67;18.63;;;;;;;13.36;100.00;98721.88;4904490;29;20054;-83
2022/07/01 03:29:47;;;;;;;28.80;17.40;;;;;;;13.41;100.00;98720.19;4893328;29;20083;-83
2022/07/01 03:32:12;;;;;;;27.77;17.33;;;;;;;13.32;100.00;98723.34;4891934;29;20031;-82
2022/07/01 03:34:40;;;;;;;27.95;18.15;;;;;;;13.34;100.00;98724.75;4907278;29;20055;-82
2022/07/01 03:37:07;;;;;;;28.10;16.85;;;;;;;13.68;100.00;98727.00;4904671;29;20036;-82
2022/07/01 03:39:34;;;;;;;25.70;16.45;;;;;;;13.57;100.00;98729.38;4905247;29;20119;-82
2022/07/01 03:42:00;;;;;;;27.27;16.65;;;;;;;13.51;100.00;98724.97;4902488;29;20033;-82
2022/07/01 03:44:25;;;;;;;25.48;16.35;;;;;;;13.43;100.00;98723.44;4884970;29;20037;-82
2022/07/01 03:46:51;;;;;;;23.50;16.10;;;;;;;13.61;100.00;98728.94;4906088;29;20066;-82
2022/07/01 03:49:16;;;;;;;26.60;16.65;;;;;;;13.43;100.00;98736.63;4905672;29;20492;-82
2022/07/01 03:51:42;;;;;;;26.90;16.77;;;;;;;13.55;100.00;98736.69;4904061;29;20051;-81
2022/07/01 03:56:52;;;;;;;28.98;15.77;;;;;;;13.64;100.00;98752.22;4892336;29;20039;-82
2022/07/01 03:59:17;;;;;;;27.02;15.40;;;;;;;13.92;100.00;98750.84;4901963;29;20490;-82
2022/07/01 04:01:43;;;;;;;22.58;16.02;;;;;;;13.91;100.00;98751.88;4889167;29;20454;-82
2022/07/01 04:04:08;;;;;;;25.55;15.43;;;;;;;13.92;100.00;98749.03;4903861;29;20045;-83
2022/07/01 04:06:35;;;;;;;24.95;15.75;;;;;;;13.94;100.00;98744.31;4901777;29;20542;-82
2022/07/01 04:09:01;;;;;;;27.50;16.85;;;;;;;14.05;100.00;98737.47;4899510;29;20107;-83
2022/07/01 04:11:27;;;;;;;24.00;14.93;;;;;;;13.98;100.00;98745.47;4906868;29;20460;-82
2022/07/01 04:13:53;;;;;;;27.30;16.98;;;;;;;13.85;100.00;98741.19;4903787;29;20045;-82
2022/07/01 04:16:19;;;;;;;24.02;15.65;;;;;;;14.11;100.00;98752.41;4898286;29;20032;-82
2022/07/01 04:18:49;;;;;;;25.25;16.00;;;;;;;14.12;100.00;98746.09;4904830;29;20052;-81
2022/07/01 04:23:58;;;;;;;22.20;15.30;;;;;;;14.32;100.00;98760.03;4899674;29;20028;-82
2022/07/01 04:26:24;;;;;;;24.58;15.32;;;;;;;14.48;100.00;98764.69;4905811;29;20042;-82
2022/07/01 04:28:51;;;;;;;23.90;14.93;;;;;;;14.55;100.00;98775.16;4904271;29;20509;-82
2022/07/01 04:31:16;;;;;;;28.52;15.90;;;;;;;14.67;100.00;98778.59;4906184;29;20040;-82
2022/07/01 04:33:45;;;;;;;24.75;16.33;;;;;;;14.79;100.00;98775.19;4903760;29;20062;-83
2022/07/01 04:36:12;;;;;;;23.13;15.40;;;;;;;14.85;100.00;98769.00;4888296;29;20044;-83
2022/07/01 04:38:41;;;;;;;27.70;16.35;;;;;;;14.94;100.00;98770.28;4886644;29;20036;-82
2022/07/01 04:43:50;;;;;;;28.00;17.33;;;;;;;15.06;100.00;98774.75;4905551;29;20040;-82
2022/07/01 04:46:16;;;;;;;29.15;17.05;;;;;;;15.05;100.00;98778.41;4900952;29;20543;-83
2022/07/01 04:48:42;;;;;;;31.00;17.13;;;;;;;15.16;100.00;98779.44;4887104;29;20116;-82
2022/07/01 04:51:08;;;;;;;27.70;17.63;;;;;;;15.08;100.00;98777.94;4903965;29;20080;-82
2022/07/01 04:53:34;;;;;;;33.90;19.23;;;;;;;15.20;100.00;98785.88;4905767;29;20118;-82
2022/07/01 04:56:00;;;;;;;26.60;17.67;;;;;;;15.30;100.00;98793.22;4906254;29;20497;-82
2022/07/01 04:58:26;;;;;;;37.58;20.25;;;;;;;15.34;100.00;98787.25;4888659;29;20028;-82
2022/07/01 05:00:52;;;;;;;33.75;21.45;;;;;;;15.36;100.00;98779.09;4903921;29;20032;-82
2022/07/01 05:03:18;;;;;;;31.90;20.05;;;;;;;15.36;100.00;98784.38;4889494;29;20399;-81
2022/07/01 05:05:44;;;;;;;30.08;19.33;;;;;;;15.52;100.00;98775.72;4903799;29;20040;-82
2022/07/01 05:08:10;;;;;;;36.72;20.85;;;;;;;15.44;100.00;98781.38;4887382;29;20469;-81
2022/07/01 05:10:35;;;;;;;35.25;20.33;;;;;;;15.54;100.00;98778.13;4888839;29;20028;-81
2022/07/01 05:13:01;;;;;;;34.85;20.38;;;;;;;15.51;100.00;98783.91;4900513;29;20192;-81
2022/07/01 05:15:27;;;;;;;34.63;19.65;;;;;;;15.42;100.00;98772.88;4906914;29;20051;-82
2022/07/01 05:23:22;;;;;;;27.90;18.17;;;;;;;15.91;100.00;98784.94;4904934;29;20482;-80
2022/07/01 05:25:47;;;;;;;27.67;17.58;;;;;;;15.97;100.00;98789.31;4906495;29;20037;-80
2022/07/01 05:28:13;;;;;;;30.73;19.25;;;;;;;16.04;100.00;98787.34;4903740;29;20028;-80
2022/07/01 05:30:39;;;;;;;27.85;18.83;;;;;;;16.12;100.00;98780.84;4897473;29;20504;-80
2022/07/01 05:33:04;;;;;;;24.95;18.42;;;;;;;16.13;100.00;98777.97;4908412;29;20036;-80
2022/07/01 05:35:30;;;;;;;31.58;20.25;;;;;;;16.32;100.00;98785.72;4891951;29;20043;-81
2022/07/01 05:37:56;;;;;;;30.40;19.33;;;;;;;16.33;100.00;98781.22;4887191;29;20044;-81
2022/07/01 05:40:22;;;;;;;26.75;18.45;;;;;;;16.50;100.00;98786.53;4905797;29;20036;-81
2022/07/01 05:42:48;;;;;;;26.15;18.33;;;;;;;16.52;100.00;98779.16;4910051;29;20481;-81
2022/07/01 05:45:14;;;;;;;26.23;19.30;;;;;;;16.59;100.00;98777.16;4904879;29;20032;-81
2022/07/01 05:47:40;;;;;;;27.65;18.17;;;;;;;16.67;100.00;98786.53;4890080;29;20033;-81
2022/07/01 05:50:06;;;;;;;30.05;19.27;;;;;;;16.69;100.00;98779.94;4907754;29;20391;-81
2022/07/01 05:52:32;;;;;;;29.77;19.60;;;;;;;16.73;100.00;98772.31;4912214;29;20376;-82
2022/07/01 05:54:57;;;;;;;30.85;19.75;;;;;;;16.66;100.00;98769.81;4908061;29;20101;-81
2022/07/01 05:57:23;;;;;;;28.70;18.77;;;;;;;16.62;100.00;98766.06;4906840;29;20083;-82
2022/07/01 05:59:48;;;;;;;28.73;17.85;;;;;;;16.80;100.00;98778.28;4901879;29;20044;-83
2022/07/01 06:02:14;;;;;;;35.63;19.52;;;;;;;16.94;100.00;98776.09;4882909;29;20028;-82
2022/07/01 06:04:43;;;;;;;34.70;20.92;;;;;;;16.87;100.00;98770.13;4898685;29;20033;-81
2022/07/01 06:07:10;;;;;;;32.88;19.00;;;;;;;17.08;100.00;98768.63;4876490;29;20040;-81
2022/07/01 06:09:39;;;;;;;34.22;20.75;;;;;;;17.23;100.00;98768.03;4899082;29;20039;-83
2022/07/01 06:12:05;;;;;;;32.30;22.08;;;;;;;17.34;100.00;98774.28;4889136;29;20032;-82
2022/07/01 06:14:31;;;;;;;31.73;23.38;;;;;;;17.13;100.00;98770.56;4908713;29;20054;-82
2022/07/01 06:16:57;;;;;;;32.65;22.80;;;;;;;16.96;100.00;98768.69;4905856;29;20040;-81
2022/07/01 06:19:23;;;;;;;26.98;18.95;;;;;;;16.76;100.00;98771.84;4903544;29;20025;-82
2022/07/01 06:21:48;;;;;;;29.00;20.52;;;;;;;16.80;100.00;98778.28;4906386;29;20071;-83
2022/07/01 06:24:14;;;;;;;23.75;18.83;;;;;;;17.25;100.00;98775.75;4890322;29;20044;-84
2022/07/01 06:26:40;;;;;;;26.80;17.98;;;;;;;16.86;100.00;98768.53;4909835;29;20035;-86
2022/07/01 06:29:05;;;;;;;22.48;17.77;;;;;;;17.05;100.00;98766.47;4893033;29;20060;-85
2022/07/01 06:31:34;;;;;;;24.95;17.92;;;;;;;17.19;100.00;98771.41;4908247;29;20059;-85
2022/07/01 06:34:00;;;;;;;19.63;17.05;;;;;;;17.50;100.00;98771.81;4873444;29;20107;-85
2022/07/01 06:36:35;;;;;;;17.38;15.52;;;;;;;16.90;100.00;98768.88;4895519;29;20055;-86
2022/07/01 06:39:01;;;;;;;16.58;13.05;;;;;;;17.26;100.00;98766.75;4866452;29;20043;-84
2022/07/01 06:41:26;;;;;;;15.13;12.73;;;;;;;17.09;100.00;98766.75;4891509;29;20036;-86
2022/07/01 06:43:53;;;;;;;15.88;13.60;;;;;;;17.37;100.00;98767.69;4904741;29;20044;-84
2022/07/01 06:46:20;;;;;;;15.20;12.60;;;;;;;17.75;100.00;98759.88;4910920;29;20446;-85
2022/07/01 06:48:45;;;;;;;15.20;12.25;;;;;;;17.75;100.00;98767.84;4907227;29;20064;-86
2022/07/01 06:51:11;;;;;;;14.85;11.27;;;;;;;17.83;100.00;98770.06;4887766;29;20055;-82
2022/07/01 06:53:36;;;;;;;15.57;11.32;;;;;;;17.72;100.00;98769.16;4893502;29;20472;-87
2022/07/01 06:56:14;;;;;;;14.45;10.93;;;;;;;17.51;100.00;98768.13;4873148;29;20468;-86
2022/07/01 06:58:40;;;;;;;15.82;10.65;;;;;;;17.37;100.00;98773.78;4899884;29;20032;-88
2022/07/01 07:01:05;;;;;;;17.30;10.95;;;;;;;17.59;100.00;98774.84;4904535;29;20083;-86
2022/07/01 07:03:32;;;;;;;16.23;13.15;;;;;;;17.63;100.00;98775.94;4874564;29;20043;-87
2022/07/01 07:06:00;;;;;;;13.07;11.23;;;;;;;17.59;100.00;98775.66;4889092;29;20032;-82
2022/07/01 07:08:29;;;;;;;11.95;10.68;;;;;;;17.92;100.00;98763.25;4907041;29;20060;-86
2022/07/01 07:10:55;;;;;;;16.65;10.93;;;;;;;17.93;100.00;98774.69;4891410;29;20132;-85
2022/07/01 07:13:20;;;;;;;11.85;10.25;;;;;;;18.16;100.00;98762.19;4901164;29;20089;-88
2022/07/01 07:15:46;;;;;;;10.85;9.70;;;;;;;18.08;100.00;98777.56;4901608;29;20041;-84
2022/07/01 07:18:11;;;;;;;13.13;9.70;;;;;;;17.74;100.00;98772.38;4887035;29;20376;-85
2022/07/01 07:20:38;;;;;;;12.25;9.00;;;;;;;18.12;100.00;98778.66;4890774;29;20479;-87
2022/07/01 07:23:04;;;;;;;12.02;8.70;;;;;;;17.74;100.00;98777.69;4912897;29;20048;-86
2022/07/01 07:25:30;;;;;;;9.43;7.38;;;;;;;16.86;100.00;98768.53;4905715;29;20452;-87
2022/07/01 07:27:56;;;;;;;11.48;8.07;;;;;;;16.94;100.00;98784.06;4903932;29;20111;-86
2022/07/01 07:30:22;;;;;;;9.70;6.95;;;;;;;17.49;100.00;98765.72;4870051;29;20036;-88
2022/07/01 07:32:47;;;;;;;9.75;7.28;;;;;;;17.44;100.00;98770.94;4906246;29;20033;-84
2022/07/01 07:35:13;;;;;;;10.32;7.55;;;;;;;17.28;100.00;98781.34;4886081;29;20025;-87
2022/07/01 07:37:40;;;;;;;13.18;7.38;;;;;;;17.46;100.00;98771.50;4870149;29;20391;-85
2022/07/01 07:40:09;;;;;;;11.50;7.75;;;;;;;18.25;100.00;98773.97;4891079;29;20390;-88
2022/07/01 07:42:35;;;;;;;8.85;7.85;;;;;;;18.62;100.00;98769.78;4906568;29;20119;-88
2022/07/01 07:45:08;;;;;;;13.00;7.43;;;;;;;18.42;100.00;98777.31;4876112;29;20148;-87
2022/07/01 07:47:34;;;;;;;12.15;7.43;;;;;;;18.13;100.00;98785.56;4886500;29;20036;-87
2022/07/01 07:50:01;;;;;;;7.30;6.60;;;;;;;18.03;100.00;98782.78;4889798;29;20028;-87
2022/07/01 07:52:27;;;;;;;8.75;7.15;;;;;;;18.46;100.00;98790.09;4890460;29;20164;-87
2022/07/01 07:54:53;;;;;;;11.55;7.25;;;;;;;18.27;100.00;98787.78;4889196;29;20502;-86
2022/07/01 07:57:18;;;;;;;8.57;7.00;;;;;;;18.53;100.00;98793.34;4892199;29;20082;-86
2022/07/01 07:59:44;;;;;;;7.68;6.20;;;;;;;18.62;100.00;98794.47;4888441;29;20103;-88
2022/07/01 08:02:09;;;;;;;7.72;6.88;;;;;;;18.79;100.00;98789.03;4886342;29;20036;-87
2022/07/01 08:04:35;;;;;;;7.82;6.50;;;;;;;19.42;100.00;98787.56;4900881;29;20084;-86
2022/07/01 08:07:00;;;;;;;8.45;5.82;;;;;;;19.93;100.00;98797.63;4886161;29;20027;-88
2022/07/01 08:09:26;;;;;;;8.35;6.10;;;;;;;19.30;100.00;98795.75;4888447;29;20036;-87
2022/07/01 08:11:52;;;;;;;8.52;6.28;;;;;;;19.80;100.00;98796.25;4878846;29;20056;-88
2022/07/01 08:14:17;;;;;;;9.60;5.75;;;;;;;19.74;100.00;98805.28;4901811;29;20049;-88
2022/07/01 08:16:43;;;;;;;7.88;5.72;;;;;;;19.49;100.00;98798.78;4887449;29;20032;-87
2022/07/01 08:19:09;;;;;;;6.10;5.55;;;;;;;20.12;100.00;98802.47;4906085;29;20031;-87
2022/07/01 08:21:35;;;;;;;10.13;5.97;;;;;;;19.48;100.00;98813.16;4891579;29;20036;-87
2022/07/01 08:24:01;;;;;;;6.30;5.53;;;;;;;20.04;100.00;98809.13;4905031;29;20093;-80
2022/07/01 08:26:27;;;;;;;9.85;5.75;;;;;;;20.41;100.00;98813.44;4902798;29;20119;-80
2022/07/01 08:28:52;;;;;;;10.50;7.38;;;;;;;20.69;100.00;98814.00;4902077;29;20403;-81
2022/07/01 08:31:19;;;;;;;11.10;7.50;;;;;;;21.16;100.00;98813.19;4908059;29;20036;-85
2022/07/01 08:33:44;;;;;;;9.35;8.30;;;;;;;21.48;100.00;98817.38;4903644;29;20039;-86
2022/07/01 08:36:10;;;;;;;9.85;8.85;;;;;;;21.62;100.00;98814.94;4891966;29;20034;-87
2022/07/01 08:38:36;;;;;;;15.05;8.52;;;;;;;21.80;100.00;98808.19;4892592;29;20032;-87
2022/07/01 08:41:04;;;;;;;8.35;7.55;;;;;;;20.93;100.00;98818.00;4905200;29;20040;-84
2022/07/01 08:43:30;;;;;;;8.52;7.38;;;;;;;21.72;100.00;98820.25;4911127;29;20092;-86
2022/07/01 08:45:58;;;;;;;9.27;7.88;;;;;;;22.07;100.00;98818.47;4907267;29;20091;-84
2022/07/01 08:48:24;;;;;;;10.90;7.05;;;;;;;22.09;100.00;98810.97;4905416;29;20483;-85
2022/07/01 08:50:50;;;;;;;8.52;7.13;;;;;;;22.39;100.00;98824.41;4909524;29;20044;-86
2022/07/01 08:53:15;;;;;;;8.25;6.63;;;;;;;22.58;100.00;98823.78;4908029;29;20028;-86
2022/07/01 08:58:29;;;;;;;5.43;4.07;;;;;;;20.59;100.00;98819.31;4903579;29;20040;-85
2022/07/01 09:01:17;;;;;;;9.85;4.35;;;;;;;21.03;100.00;98822.53;4911612;29;20064;-84
2022/07/01 09:03:45;;;;;;;9.90;4.82;;;;;;;21.17;100.00;98817.47;4905052;29;20081;-86
2022/07/01 09:06:15;;;;;;;6.50;4.18;;;;;;;21.35;100.00;98819.56;4916182;29;20064;-86
2022/07/01 09:08:42;;;;;;;7.65;3.90;;;;;;;21.18;99.68;98813.72;4901032;29;20047;-85
2022/07/01 09:11:12;;;;;;;12.23;5.97;;;;;;;21.35;100.00;98824.91;4912412;29;20087;-83
2022/07/01 09:13:38;;;;;;;8.25;6.90;;;;;;;21.57;100.00;98823.75;4912003;29;20530;-87
2022/07/01 09:16:14;;;;;;;16.27;6.30;;;;;;;21.43;98.77;98820.88;4894666;29;20036;-85
2022/07/01 09:19:00;;;;;;;9.48;6.05;;;;;;;21.53;97.01;98820.81;4876473;29;20495;-86
2022/07/01 09:21:29;;;;;;;7.18;5.57;;;;;;;22.34;97.88;98825.25;4906070;29;20036;-86
2022/07/01 09:24:01;;;;;;;9.85;6.30;;;;;;;22.03;94.39;98833.47;4916644;29;20064;-86
2022/07/01 09:26:27;;;;;;;7.57;5.88;;;;;;;21.95;93.91;98820.66;4911648;29;20063;-85
2022/07/01 09:28:57;;;;;;;8.95;6.10;;;;;;;22.72;94.62;98823.94;4908757;29;20049;-87
2022/07/01 09:31:33;;;;;;;6.20;5.38;;;;;;;22.34;93.05;98827.91;4910913;29;20032;-84
2022/07/01 09:34:08;;;;;;;8.30;6.18;;;;;;;21.43;93.31;98815.53;4898176;29;20036;-83
2022/07/01 09:36:40;;;;;;;12.68;6.57;;;;;;;22.50;91.01;98833.19;4911540;29;20096;-83
2022/07/01 09:39:06;;;;;;;9.70;5.88;;;;;;;22.87;92.40;98823.81;4907598;29;20040;-84
2022/07/01 09:41:38;;;;;;;7.45;6.82;;;;;;;22.82;90.18;98826.53;4905563;29;20035;-83
2022/07/01 09:44:08;;;;;;;9.68;6.60;;;;;;;22.85;89.37;98825.97;4908860;29;20036;-83
2022/07/01 09:46:34;;;;;;;9.27;6.40;;;;;;;23.66;89.17;98828.09;4894800;29;20095;-85
2022/07/01 09:49:00;;;;;;;6.97;6.32;;;;;;;23.29;87.38;98823.44;4914415;29;20028;-84
2022/07/01 09:51:28;;;;;;;7.43;6.10;;;;;;;23.72;87.37;98830.72;4906439;29;20056;-83
2022/07/01 09:53:53;;;;;;;7.22;6.60;;;;;;;22.48;87.08;98827.34;4905122;29;20099;-83
2022/07/01 09:56:19;;;;;;;7.80;6.00;;;;;;;23.32;90.66;98828.22;4901511;29;20112;-84
2022/07/01 09:58:45;;;;;;;7.50;5.72;;;;;;;23.55;84.66;98834.66;4905377;29;20044;-85
2022/07/01 10:01:12;;;;;;;5.90;5.40;;;;;;;23.29;85.77;98839.50;4908953;29;20039;-84
2022/07/01 10:03:39;;;;;;;5.70;5.20;;;;;;;22.61;81.27;98848.09;4906680;29;20040;-85
2022/07/01 10:06:07;;;;;;;6.47;5.45;;;;;;;22.81;84.50;98836.44;4910667;29;20167;-85
2022/07/01 10:08:36;;;;;;;8.88;6.72;;;;;;;22.95;83.45;98841.13;4891020;29;20041;-84
2022/07/01 10:11:35;;;;;;;10.32;8.57;;;;;;;22.17;84.12;98838.19;4907854;29;20046;-83
2022/07/01 10:14:06;;;;;;;14.02;12.07;;;;;;;20.96;85.78;98842.28;4911710;29;20040;-85
2022/07/01 10:16:32;;;;;;;19.23;14.63;;;;;;;21.22;85.92;98833.47;4903250;29;20065;-84
2022/07/01 10:18:58;;;;;;;18.95;15.32;;;;;;;21.60;86.24;98838.41;4909857;29;20043;-84
2022/07/01 10:21:30;;;;;;;13.15;11.90;;;;;;;21.12;83.95;98842.28;4906492;29;20039;-84
2022/07/01 10:24:15;;;;;;;16.55;12.55;;;;;;;21.40;86.33;98838.22;4889505;29;20056;-85
2022/07/01 10:26:42;;;;;;;13.65;11.48;;;;;;;22.47;83.80;98839.09;4903621;29;20048;-84
2022/07/01 10:29:32;;;;;;;15.98;11.77;;;;;;;22.19;83.87;98836.84;4909023;29;20458;-85
2022/07/01 10:32:25;;;;;;;13.13;10.35;;;;;;;22.09;81.81;98834.22;4885307;29;20048;-84
2022/07/01 10:35:04;;;;;;;16.05;9.50;;;;;;;22.34;83.37;98837.84;4908232;29;20036;-89
2022/07/01 10:37:29;;;;;;;11.43;7.97;;;;;;;22.33;83.18;98842.38;4912581;29;20039;-89
2022/07/01 10:39:58;;;;;;;8.35;6.95;;;;;;;22.54;84.20;98847.59;4907150;29;20028;-87
2022/07/01 10:42:33;;;;;;;6.15;5.30;;;;;;;23.24;81.33;98848.34;4900618;29;20048;-88
2022/07/01 10:45:01;;;;;;;7.78;5.53;;;;;;;22.30;83.25;98858.16;4881861;29;20396;-86
2022/07/01 10:47:26;;;;;;;5.20;4.70;;;;;;;21.60;82.42;98854.44;4890261;29;20032;-87
2022/07/01 10:49:55;;;;;;;4.82;4.30;;;;;;;22.88;81.44;98862.06;4893778;29;20406;-90
2022/07/01 10:52:21;;;;;;;4.07;3.53;;;;;;;22.18;80.43;98867.31;4887967;29;20096;-90
2022/07/01 10:54:49;;;;;;;6.53;4.30;;;;;;;23.07;80.02;98860.28;4888102;29;20039;-89
2022/07/01 10:57:15;;;;;;;5.15;4.13;;;;;;;23.43;78.93;98864.53;4915605;29;20083;-87
2022/07/01 10:59:41;;;;;;;5.78;4.05;;;;;;;23.41;78.10;98865.88;4908405;29;20068;-88
2022/07/01 11:02:12;;;;;;;7.00;4.00;;;;;;;23.36;77.82;98856.84;4895927;29;20422;-86
2022/07/01 11:04:38;;;;;;;9.23;4.00;;;;;;;23.76;77.85;98845.91;4890289;29;20387;-85
2022/07/01 11:07:04;;;;;;;4.97;3.63;;;;;;;22.56;78.16;98856.16;4889979;29;20043;-82
2022/07/01 11:09:29;;;;;;;6.85;4.20;;;;;;;22.97;78.60;98858.50;4905469;29;20032;-84
2022/07/01 11:11:55;;;;;;;4.53;4.10;;;;;;;23.36;77.45;98856.84;4887652;29;20060;-83
2022/07/01 11:14:20;;;;;;;4.95;3.80;;;;;;;22.85;76.46;98855.41;4891733;29;20041;-82
2022/07/01 11:16:46;;;;;;;8.20;3.67;;;;;;;24.06;75.54;98856.56;4904606;29;20078;-84
2022/07/01 11:19:11;;;;;;;5.03;3.42;;;;;;;23.61;73.99;98857.63;4906549;29;20479;-84
2022/07/01 11:21:37;;;;;;;4.82;3.42;;;;;;;24.58;73.24;98856.66;4906995;29;20073;-83
2022/07/01 11:24:08;;;;;;;6.80;3.40;;;;;;;24.42;73.84;98842.66;4891486;29;20036;-85
2022/07/01 11:26:34;;;;;;;3.40;3.10;;;;;;;24.51;73.86;98851.66;4888376;29;20099;-84
2022/07/01 11:28:59;;;;;;;6.95;3.75;;;;;;;24.79;74.56;98850.97;4907098;29;20032;-84
2022/07/01 11:31:30;;;;;;;3.80;3.40;;;;;;;23.46;75.27;98855.09;4889045;29;20470;-85
2022/07/01 11:33:56;;;;;;;3.70;3.40;;;;;;;23.93;73.55;98853.50;4910242;29;20483;-84